createdAt,value
2022-11-16T00:00:05.833Z,99046.69
2022-11-16T00:02:09.590Z,99044.22
2022-11-16T00:04:13.330Z,99045.41
2022-11-16T00:06:17.018Z,99043.06
2022-11-16T00:08:21.479Z,99044.97
2022-11-16T00:10:24.375Z,99042.44
2022-11-16T00:12:27.441Z,99037.56
2022-11-16T00:14:33.128Z,99046.47
2022-11-16T00:16:36.089Z,99048.25
2022-11-16T00:18:39.106Z,99044.09
2022-11-16T00:20:41.993Z,99044.22
2022-11-16T00:22:44.989Z,99043.47
2022-11-16T00:24:49.701Z,99041.78
2022-11-16T00:26:54.907Z,99032.34
2022-11-16T00:28:58.179Z,99028.78
2022-11-16T00:31:01.666Z,99036.19
2022-11-16T00:33:05.561Z,99031.81
2022-11-16T00:35:09.719Z,99035.31
2022-11-16T00:37:12.908Z,99032.78
2022-11-16T00:39:16.787Z,99033.28
2022-11-16T00:41:23.444Z,99033.94
2022-11-16T00:43:26.414Z,99036.03
2022-11-16T00:45:29.461Z,99027.34
2022-11-16T00:47:32.440Z,99030.00
2022-11-16T00:49:35.555Z,99038.78
2022-11-16T00:51:39.248Z,99036.03
2022-11-16T00:53:43.182Z,99031.59
2022-11-16T00:55:47.139Z,99033.50
2022-11-16T00:57:53.639Z,99039.00
2022-11-16T00:59:58.663Z,99028.72
2022-11-16T01:02:01.897Z,99032.00
2022-11-16T01:04:05.335Z,99033.28
2022-11-16T01:06:10.529Z,99026.50
2022-11-16T01:08:13.699Z,99028.38
2022-11-16T01:10:19.173Z,99030.28
2022-11-16T01:12:21.095Z,99022.16
2022-11-16T01:14:26.319Z,99022.25
2022-11-16T01:16:35.854Z,99018.03
2022-11-16T01:18:42.557Z,99020.56
2022-11-16T01:20:46.531Z,99022.88
2022-11-16T01:22:50.433Z,99018.88
2022-11-16T01:24:54.094Z,99019.72
2022-11-16T01:26:58.268Z,99008.31
2022-11-16T01:29:05.636Z,99009.34
2022-11-16T01:31:14.164Z,99014.63
2022-11-16T01:33:17.956Z,99006.59
2022-11-16T01:35:20.954Z,99011.06
2022-11-16T01:37:24.577Z,99012.31
2022-11-16T01:39:27.461Z,99007.88
2022-11-16T01:41:34.409Z,99000.78
2022-11-16T01:43:53.385Z,99002.38
2022-11-16T01:45:57.793Z,99002.38
2022-11-16T01:48:02.740Z,99005.31
2022-11-16T01:50:12.445Z,99008.06
2022-11-16T01:52:20.491Z,99001.09
2022-11-16T01:54:23.502Z,99001.00
2022-11-16T01:56:33.735Z,99002.03
2022-11-16T01:58:48.381Z,99002.13
2022-11-16T02:00:57.337Z,98993.50
2022-11-16T02:03:24.730Z,98990.91
2022-11-16T02:05:36.365Z,98991.13
2022-11-16T02:08:11.668Z,98984.28
2022-11-16T02:10:20.094Z,98983.53
2022-11-16T02:12:40.703Z,98982.44
2022-11-16T02:14:55.592Z,98977.38
2022-11-16T02:17:08.677Z,98974.75
2022-11-16T02:19:48.228Z,98975.88
2022-11-16T02:21:57.901Z,98974.19
2022-11-16T02:24:31.989Z,98968.16
2022-11-16T02:27:04.100Z,98974.09
2022-11-16T02:29:20.127Z,98973.34
2022-11-16T02:31:26.487Z,98973.22
2022-11-16T02:33:32.155Z,98974.19
2022-11-16T02:35:39.448Z,98974.19
2022-11-16T02:37:46.734Z,98962.78
2022-11-16T02:39:53.370Z,98966.38
2022-11-16T02:41:57.651Z,98961.94
2022-11-16T02:44:04.650Z,98964.06
2022-11-16T02:46:12.016Z,98969.78
2022-11-16T02:48:18.761Z,98969.97
2022-11-16T02:50:23.360Z,98964.06
2022-11-16T02:52:27.413Z,98964.06
2022-11-16T02:54:30.664Z,98958.66
2022-11-16T02:56:43.718Z,98962.34
2022-11-16T02:58:48.196Z,98957.25
2022-11-16T03:00:56.031Z,98965.94
2022-11-16T03:03:09.503Z,98979.25
2022-11-16T03:05:16.980Z,98982.72
2022-11-16T03:07:30.693Z,98985.34
2022-11-16T03:09:36.989Z,98984.31
2022-11-16T03:12:02.842Z,98986.53
2022-11-16T03:14:12.473Z,98986.09
2022-11-16T03:16:17.837Z,98985.34
2022-11-16T03:18:23.492Z,98976.94
2022-11-16T03:20:28.449Z,98981.16
2022-11-16T03:22:35.202Z,98983.81
2022-11-16T03:24:39.052Z,98975.16
2022-11-16T03:26:46.250Z,98973.56
2022-11-16T03:28:53.673Z,98965.31
2022-11-16T03:31:01.239Z,98962.59
2022-11-16T03:33:08.823Z,98967.03
2022-11-16T03:35:17.203Z,98967.78
2022-11-16T03:37:20.860Z,98964.16
2022-11-16T03:39:26.492Z,98964.91
2022-11-16T03:41:30.496Z,98956.03
2022-11-16T03:43:35.195Z,98956.03
2022-11-16T03:45:39.116Z,98952.34
2022-11-16T03:47:44.196Z,98952.66
2022-11-16T03:49:47.675Z,98951.59
2022-11-16T03:51:54.839Z,98951.38
2022-11-16T03:53:58.612Z,98953.22
2022-11-16T03:56:01.999Z,98946.97
2022-11-16T03:58:05.083Z,98956.66
2022-11-16T04:00:10.701Z,98941.88
2022-11-16T04:02:18.275Z,98935.34
2022-11-16T04:04:39.198Z,98936.19
2022-11-16T04:06:59.766Z,98946.66
2022-11-16T04:09:22.015Z,98942.09
2022-11-16T04:11:42.782Z,98951.00
2022-11-16T04:14:08.004Z,98956.28
2022-11-16T04:16:29.767Z,98962.50
2022-11-16T04:18:50.186Z,98961.66
2022-11-16T04:21:10.765Z,98967.88
2022-11-16T04:23:33.154Z,98970.94
2022-11-16T04:25:40.591Z,98971.69
2022-11-16T04:28:08.247Z,98971.69
2022-11-16T04:30:14.135Z,98977.72
2022-11-16T04:32:35.656Z,98973.50
2022-11-16T04:34:55.984Z,98978.78
2022-11-16T04:37:31.132Z,98983.94
2022-11-16T04:39:34.091Z,98971.59
2022-11-16T04:41:56.294Z,98967.13
2022-11-16T04:43:59.397Z,98973.28
2022-11-16T04:46:25.114Z,98963.47
2022-11-16T04:48:28.004Z,98965.47
2022-11-16T04:50:31.802Z,98973.59
2022-11-16T04:52:36.085Z,98977.38
2022-11-16T04:54:40.611Z,98983.19
2022-11-16T04:56:46.276Z,98983.41
2022-11-16T04:58:49.326Z,98978.88
2022-11-16T05:00:52.766Z,98984.16
2022-11-16T05:03:01.220Z,98982.44
2022-11-16T05:05:05.988Z,98977.38
2022-11-16T05:07:12.010Z,98980.78
2022-11-16T05:09:16.789Z,98980.78
2022-11-16T05:11:20.215Z,98984.16
2022-11-16T05:13:24.862Z,98982.44
2022-11-16T05:15:29.112Z,98993.97
2022-11-16T05:17:34.264Z,98991.94
2022-11-16T05:19:55.125Z,98996.84
2022-11-16T05:22:00.097Z,98989.66
2022-11-16T05:24:21.595Z,98993.22
2022-11-16T05:26:25.400Z,98988.38
2022-11-16T05:28:31.525Z,98991.00
2022-11-16T05:30:34.797Z,98989.66
2022-11-16T05:32:39.422Z,98994.09
2022-11-16T05:34:44.504Z,98994.94
2022-11-16T05:36:47.722Z,98990.59
2022-11-16T05:38:55.980Z,98993.03
2022-11-16T05:41:01.137Z,99002.13
2022-11-16T05:43:05.331Z,98996.72
2022-11-16T05:45:20.760Z,98996.84
2022-11-16T05:47:24.807Z,98992.59
2022-11-16T05:49:27.844Z,99000.50
2022-11-16T05:51:31.266Z,99011.63
2022-11-16T05:53:36.175Z,99005.69
2022-11-16T05:55:40.436Z,99001.38
2022-11-16T05:57:43.797Z,99008.31
2022-11-16T05:59:47.367Z,99016.16
2022-11-16T06:01:52.416Z,99021.75
2022-11-16T06:03:55.973Z,99024.50
2022-11-16T06:05:59.871Z,99028.28
2022-11-16T06:08:05.219Z,99025.53
2022-11-16T06:10:09.512Z,99023.00
2022-11-16T06:12:12.660Z,99029.78
2022-11-16T06:14:15.825Z,99028.38
2022-11-16T06:16:19.674Z,99026.59
2022-11-16T06:18:24.883Z,99030.72
2022-11-16T06:20:27.928Z,99040.44
2022-11-16T06:22:30.937Z,99041.38
2022-11-16T06:24:33.916Z,99051.22
2022-11-16T06:26:37.221Z,99042.03
2022-11-16T06:28:40.589Z,99043.09
2022-11-16T06:30:43.498Z,99048.31
2022-11-16T06:32:47.437Z,99050.84
2022-11-16T06:34:52.518Z,99057.53
2022-11-16T06:36:56.141Z,99062.66
2022-11-16T06:39:01.015Z,99060.75
2022-11-16T06:41:06.266Z,99066.50
2022-11-16T06:43:15.509Z,99063.31
2022-11-16T06:45:19.168Z,99064.47
2022-11-16T06:47:26.820Z,99065.75
2022-11-16T06:49:30.180Z,99057.09
2022-11-16T06:51:38.729Z,99058.78
2022-11-16T06:53:41.975Z,99065.56
2022-11-16T06:55:45.043Z,99061.06
2022-11-16T06:57:48.937Z,99065.31
2022-11-16T06:59:53.812Z,99067.44
2022-11-16T07:01:56.917Z,99067.44
2022-11-16T07:04:00.730Z,99069.34
2022-11-16T07:06:07.786Z,99074.44
2022-11-16T07:08:12.195Z,99072.94
2022-11-16T07:10:15.326Z,99079.72
2022-11-16T07:12:19.311Z,99078.09
2022-11-16T07:14:22.788Z,99083.47
2022-11-16T07:16:26.077Z,99083.28
2022-11-16T07:18:35.196Z,99076.31
2022-11-16T07:20:38.972Z,99083.28
2022-11-16T07:22:42.300Z,99088.50
2022-11-16T07:24:50.497Z,99083.47
2022-11-16T07:26:55.304Z,99099.31
2022-11-16T07:29:02.275Z,99099.22
2022-11-16T07:31:08.058Z,99101.03
2022-11-16T07:33:11.040Z,99108.00
2022-11-16T07:35:32.917Z,99118.84
2022-11-16T07:37:37.386Z,99118.03
2022-11-16T07:39:40.726Z,99123.78
2022-11-16T07:41:47.082Z,99115.94
2022-11-16T07:44:06.426Z,99122.91
2022-11-16T07:48:37.635Z,99126.97
2022-11-16T07:50:52.514Z,99120.63
2022-11-16T07:52:56.738Z,99135.91
2022-11-16T07:54:59.863Z,99135.56
2022-11-16T07:57:06.023Z,99138.19
2022-11-16T07:59:09.713Z,99139.09
2022-11-16T08:01:18.036Z,99149.53
2022-11-16T08:03:24.811Z,99150.19
2022-11-16T08:05:29.829Z,99152.94
2022-11-16T08:07:34.521Z,99142.66
2022-11-16T08:09:38.156Z,99149.72
2022-11-16T08:11:41.730Z,99140.59
2022-11-16T08:13:46.246Z,99141.41
2022-11-16T08:15:51.932Z,99142.97
2022-11-16T08:17:55.337Z,99137.41
2022-11-16T08:19:58.560Z,99138.66
2022-11-16T08:22:01.953Z,99134.88
2022-11-16T08:24:14.356Z,99134.88
2022-11-16T08:26:21.959Z,99143.78
2022-11-16T08:28:33.264Z,99133.75
2022-11-16T08:30:39.926Z,99139.25
2022-11-16T08:32:45.479Z,99135.75
2022-11-16T08:34:48.946Z,99147.84
2022-11-16T08:36:52.555Z,99143.25
2022-11-16T08:39:01.599Z,99149.50
2022-11-16T08:41:06.159Z,99157.44
2022-11-16T08:43:11.066Z,99158.56
2022-11-16T08:45:14.188Z,99156.09
2022-11-16T08:47:19.448Z,99157.44
2022-11-16T08:49:31.163Z,99162.94
2022-11-16T08:51:34.547Z,99162.69
2022-11-16T08:53:40.831Z,99176.78
2022-11-16T08:55:57.933Z,99173.06
2022-11-16T08:58:00.988Z,99175.59
2022-11-16T09:00:08.221Z,99160.41
2022-11-16T09:02:23.442Z,99161.38
2022-11-16T09:04:29.640Z,99164.91
2022-11-16T09:06:52.703Z,99169.03
2022-11-16T09:08:59.521Z,99162.72
2022-11-16T09:11:05.590Z,99168.44
2022-11-16T09:13:08.895Z,99161.25
2022-11-16T09:15:14.495Z,99161.25
2022-11-16T09:17:26.164Z,99163.78
2022-11-16T09:19:30.373Z,99162.94
2022-11-16T09:21:33.414Z,99149.06
2022-11-16T09:23:36.619Z,99149.16
2022-11-16T09:25:39.503Z,99160.81
2022-11-16T09:27:42.386Z,99152.34
2022-11-16T09:29:45.314Z,99156.97
2022-11-16T09:31:48.570Z,99161.59
2022-11-16T09:33:51.681Z,99157.34
2022-11-16T09:35:56.244Z,99157.81
2022-11-16T09:37:59.227Z,99164.19
2022-11-16T09:40:02.318Z,99151.25
2022-11-16T09:42:15.164Z,99143.56
2022-11-16T09:44:33.181Z,99144.66
2022-11-16T09:46:38.167Z,99147.84
2022-11-16T09:48:41.628Z,99147.84
2022-11-16T09:50:48.240Z,99150.53
2022-11-16T09:52:53.998Z,99150.06
2022-11-16T09:54:57.535Z,99154.38
2022-11-16T09:57:03.323Z,99148.44
2022-11-16T09:59:18.115Z,99156.28
2022-11-16T10:01:25.492Z,99150.91
2022-11-16T10:03:29.227Z,99145.25
2022-11-16T10:05:36.891Z,99152.56
2022-11-16T10:07:44.928Z,99154.16
2022-11-16T10:09:49.545Z,99145.91
2022-11-16T10:12:12.601Z,99141.03
2022-11-16T10:14:43.814Z,99150.16
2022-11-16T10:16:51.106Z,99150.91
2022-11-16T10:18:57.371Z,99143.34
2022-11-16T10:21:22.887Z,99157.84
2022-11-16T10:23:43.466Z,99146.38
2022-11-16T10:25:53.988Z,99150.78
2022-11-16T10:28:14.736Z,99144.22
2022-11-16T10:30:18.932Z,99151.41
2022-11-16T10:32:26.125Z,99166.09
2022-11-16T10:34:37.847Z,99145.25
2022-11-16T10:36:40.719Z,99152.34
2022-11-16T10:38:45.541Z,99149.47
2022-11-16T10:40:53.745Z,99138.47
2022-11-16T10:43:13.736Z,99126.19
2022-11-16T10:45:20.675Z,99141.22
2022-11-16T10:47:30.876Z,99124.06
2022-11-16T10:49:41.062Z,99124.91
2022-11-16T10:51:44.055Z,99129.94
2022-11-16T10:53:47.071Z,99112.81
2022-11-16T10:56:18.575Z,99106.19
2022-11-16T10:58:21.441Z,99094.75
2022-11-16T11:00:39.918Z,99091.06
2022-11-16T11:02:49.151Z,99097.53
2022-11-16T11:05:03.851Z,99087.41
2022-11-16T11:07:27.253Z,99088.38
2022-11-16T11:09:32.301Z,99094.75
2022-11-16T11:11:56.721Z,99079.31
2022-11-16T11:14:10.163Z,99083.44
2022-11-16T11:16:32.367Z,99079.22
2022-11-16T11:18:35.561Z,99074.28
2022-11-16T11:20:44.833Z,99082.75
2022-11-16T11:22:53.350Z,99076.09
2022-11-16T11:24:56.665Z,99069.59
2022-11-16T11:27:01.328Z,99066.44
2022-11-16T11:29:18.721Z,99065.97
2022-11-16T11:31:34.838Z,99060.31
2022-11-16T11:33:39.140Z,99064.28
2022-11-16T11:35:42.416Z,99070.69
2022-11-16T11:37:45.370Z,99071.28
2022-11-16T11:40:07.869Z,99058.06
2022-11-16T11:42:23.159Z,99052.47
2022-11-16T11:44:39.848Z,99052.03
2022-11-16T11:49:33.301Z,99045.47
2022-11-16T11:51:40.076Z,99038.34
2022-11-16T11:53:55.216Z,99038.50
2022-11-16T11:56:00.511Z,99037.06
2022-11-16T11:58:31.947Z,99029.75
2022-11-16T12:00:40.527Z,99036.03
2022-11-16T12:03:17.633Z,99039.28
2022-11-16T12:05:46.109Z,99032.63
2022-11-16T12:08:08.802Z,99039.16
2022-11-16T12:10:23.093Z,99041.34
2022-11-16T12:12:56.703Z,99034.56
2022-11-16T12:15:50.751Z,99034.09
2022-11-16T12:18:23.273Z,99037.22
2022-11-16T12:20:58.104Z,99040.88
2022-11-16T12:23:27.673Z,99035.75
2022-11-16T12:25:47.000Z,99044.97
2022-11-16T12:27:58.030Z,99033.81
2022-11-16T12:30:15.895Z,99022.41
2022-11-16T12:32:37.673Z,99032.09
2022-11-16T12:34:53.388Z,99033.84
2022-11-16T12:37:10.745Z,99034.06
2022-11-16T12:39:37.635Z,99035.78
2022-11-16T12:42:16.045Z,99021.56
2022-11-16T12:44:23.208Z,99024.81
2022-11-16T12:46:32.025Z,99015.72
2022-11-16T12:48:57.404Z,99016.59
2022-11-16T12:51:12.737Z,99008.69
2022-11-16T12:53:56.843Z,99007.50
2022-11-16T12:56:03.417Z,99003.91
2022-11-16T12:58:22.398Z,99006.81
2022-11-16T13:00:25.304Z,99001.25
2022-11-16T13:02:39.066Z,99007.69
2022-11-16T13:04:45.585Z,98995.19
2022-11-16T13:06:52.177Z,98992.41
2022-11-16T13:09:01.139Z,98991.53
2022-11-16T13:11:12.989Z,98992.66
2022-11-16T13:13:35.989Z,99002.94
2022-11-16T13:15:41.609Z,98995.22
2022-11-16T13:17:48.236Z,98989.41
2022-11-16T13:20:04.498Z,98995.28
2022-11-16T13:22:13.706Z,98991.00
2022-11-16T13:24:41.785Z,98988.06
2022-11-16T13:26:49.699Z,98987.13
2022-11-16T13:29:02.353Z,98980.22
2022-11-16T13:31:09.939Z,98971.16
2022-11-16T13:33:28.101Z,98971.44
2022-11-16T13:35:34.825Z,98973.00
2022-11-16T13:37:48.800Z,98968.19
2022-11-16T13:40:22.134Z,98962.59
2022-11-16T13:42:31.363Z,98963.63
2022-11-16T13:44:34.603Z,98955.03
2022-11-16T13:46:56.540Z,98956.69
2022-11-16T13:48:59.902Z,98963.03
2022-11-16T13:51:04.486Z,98971.38
2022-11-16T13:55:47.285Z,98962.50
2022-11-16T13:57:54.817Z,98970.34
2022-11-16T14:00:20.753Z,98969.50
2022-11-16T14:02:31.861Z,98962.84
2022-11-16T14:04:57.958Z,98972.28
2022-11-16T14:07:03.749Z,98969.84
2022-11-16T14:09:45.621Z,98965.78
2022-11-16T14:11:48.547Z,98971.75
2022-11-16T14:13:56.843Z,98979.22
2022-11-16T14:16:32.332Z,98981.81
2022-11-16T14:18:37.291Z,98973.97
2022-11-16T14:20:58.284Z,98977.19
2022-11-16T14:23:13.622Z,98980.69
2022-11-16T14:25:31.846Z,98972.19
2022-11-16T14:27:40.461Z,98968.22
2022-11-16T14:29:53.136Z,98969.41
2022-11-16T14:31:57.170Z,98968.22
2022-11-16T14:34:01.226Z,98963.75
2022-11-16T14:36:17.699Z,98961.34
2022-11-16T14:38:28.563Z,98968.44
2022-11-16T14:40:34.064Z,98959.53
2022-11-16T14:43:09.546Z,98964.44
2022-11-16T14:45:14.945Z,98958.69
2022-11-16T14:47:26.740Z,98958.81
2022-11-16T14:49:33.790Z,98968.66
2022-11-16T14:51:38.167Z,98957.81
2022-11-16T14:53:49.010Z,98965.06
2022-11-16T14:55:53.554Z,98968.28
2022-11-16T14:58:09.679Z,98965.00
2022-11-16T15:00:21.060Z,98961.31
2022-11-16T15:02:25.913Z,98955.38
2022-11-16T15:04:28.905Z,98958.34
2022-11-16T15:06:34.724Z,98959.66
2022-11-16T15:08:45.349Z,98963.50
2022-11-16T15:10:53.412Z,98962.03
2022-11-16T15:12:58.486Z,98958.34
2022-11-16T15:15:12.067Z,98956.16
2022-11-16T15:17:31.915Z,98951.81
2022-11-16T15:19:50.511Z,98955.66
2022-11-16T15:21:54.370Z,98964.78
2022-11-16T15:26:21.996Z,98957.59
2022-11-16T15:28:27.708Z,98956.53
2022-11-16T15:30:37.470Z,98956.66
2022-11-16T15:32:42.475Z,98961.09
2022-11-16T15:34:52.851Z,98962.91
2022-11-16T15:36:55.709Z,98960.81
2022-11-16T15:38:59.959Z,98955.19
2022-11-16T15:41:04.450Z,98951.91
2022-11-16T15:47:54.703Z,98937.84
2022-11-16T15:50:00.998Z,98930.00
2022-11-16T15:52:04.664Z,98931.50
2022-11-16T15:54:15.126Z,98938.81
2022-11-16T15:56:21.712Z,98933.09
2022-11-16T15:58:26.614Z,98932.56
2022-11-16T16:00:32.103Z,98932.69
2022-11-16T16:02:35.033Z,98926.06
2022-11-16T16:04:43.416Z,98914.72
2022-11-16T16:06:49.787Z,98917.38
2022-11-16T16:09:14.187Z,98910.81
2022-11-16T16:11:28.585Z,98912.94
2022-11-16T16:13:35.842Z,98918.44
2022-11-16T16:15:40.692Z,98929.22
2022-11-16T16:17:46.944Z,98927.00
2022-11-16T16:19:55.574Z,98928.06
2022-11-16T16:21:59.836Z,98931.66
2022-11-16T16:24:03.787Z,98924.47
2022-11-16T16:26:14.324Z,98920.25
2022-11-16T16:28:17.233Z,98903.84
2022-11-16T16:30:20.719Z,98906.50
2022-11-16T16:32:27.887Z,98908.38
2022-11-16T16:34:42.155Z,98910.31
2022-11-16T16:36:51.267Z,98893.72
2022-11-16T16:38:54.391Z,98897.28
2022-11-16T16:41:01.035Z,98897.41
2022-11-16T16:43:11.545Z,98891.38
2022-11-16T16:45:16.772Z,98895.63
2022-11-16T16:47:21.906Z,98898.25
2022-11-16T16:49:26.210Z,98889.88
2022-11-16T16:51:29.127Z,98891.25
2022-11-16T16:53:32.361Z,98894.66
2022-11-16T16:55:37.676Z,98894.47
2022-11-16T16:57:48.235Z,98899.00
2022-11-16T16:59:51.218Z,98905.75
2022-11-16T17:01:58.240Z,98902.41
2022-11-16T17:04:01.136Z,98902.41
2022-11-16T17:06:05.708Z,98906.72
2022-11-16T17:08:16.454Z,98914.66
2022-11-16T17:10:19.447Z,98914.66
2022-11-16T17:12:22.786Z,98909.13
2022-11-16T17:14:25.974Z,98903.84
2022-11-16T17:16:29.177Z,98894.25
2022-11-16T17:18:32.383Z,98890.75
2022-11-16T17:20:45.475Z,98883.78
2022-11-16T17:23:01.571Z,98879.31
2022-11-16T17:25:04.884Z,98885.56
2022-11-16T17:27:07.814Z,98882.91
2022-11-16T17:29:10.869Z,98874.25
2022-11-16T17:31:14.155Z,98877.84
2022-11-16T17:33:20.067Z,98875.09
2022-11-16T17:35:26.634Z,98870.03
2022-11-16T17:37:29.489Z,98868.31
2022-11-16T17:39:33.899Z,98869.06
2022-11-16T17:41:36.970Z,98865.47
2022-11-16T17:43:40.216Z,98862.00
2022-11-16T17:45:43.122Z,98861.47
2022-11-16T17:47:54.633Z,98862.75
2022-11-16T17:49:57.863Z,98862.63
2022-11-16T17:52:01.684Z,98855.22
2022-11-16T17:54:04.775Z,98865.56
2022-11-16T17:56:13.219Z,98869.59
2022-11-16T17:58:41.307Z,98864.13
2022-11-16T18:00:51.319Z,98861.47
2022-11-16T18:02:54.868Z,98854.25
2022-11-16T18:05:05.438Z,98855.31
2022-11-16T18:07:08.560Z,98858.09
2022-11-16T18:09:11.942Z,98861.88
2022-11-16T18:11:18.074Z,98853.19
2022-11-16T18:13:21.129Z,98862.31
2022-11-16T18:15:29.052Z,98861.56
2022-11-16T18:17:32.662Z,98858.50
2022-11-16T18:19:35.583Z,98870.88
2022-11-16T18:21:40.970Z,98866.72
2022-11-16T18:23:51.221Z,98858.81
2022-11-16T18:25:54.198Z,98854.81
2022-11-16T18:28:06.434Z,98854.19
2022-11-16T18:30:10.618Z,98856.94
2022-11-16T18:32:22.766Z,98846.53
2022-11-16T18:34:25.777Z,98846.66
2022-11-16T18:36:32.892Z,98847.63
2022-11-16T18:38:37.498Z,98844.22
2022-11-16T18:40:40.955Z,98836.81
2022-11-16T18:42:57.763Z,98831.53
2022-11-16T18:45:02.274Z,98824.91
2022-11-16T18:47:05.609Z,98831.19
2022-11-16T18:49:08.978Z,98827.06
2022-11-16T18:53:37.521Z,98820.72
2022-11-16T18:55:40.761Z,98819.22
2022-11-16T18:57:43.843Z,98824.72
2022-11-16T18:59:46.937Z,98817.63
2022-11-16T19:01:52.147Z,98821.88
2022-11-16T19:03:56.357Z,98820.25
2022-11-16T19:06:00.848Z,98829.38
2022-11-16T19:08:07.854Z,98823.34
2022-11-16T19:10:11.872Z,98825.53
2022-11-16T19:12:14.830Z,98824.03
2022-11-16T19:14:17.837Z,98826.25
2022-11-16T19:16:27.840Z,98829.81
2022-11-16T19:18:32.235Z,98830.97
2022-11-16T19:20:51.049Z,98825.69
2022-11-16T19:22:54.341Z,98828.63
2022-11-16T19:25:00.511Z,98832.44
2022-11-16T19:27:06.991Z,98835.16
2022-11-16T19:29:27.630Z,98835.34
2022-11-16T19:31:35.744Z,98828.81
2022-11-16T19:33:40.827Z,98820.41
2022-11-16T19:35:52.572Z,98815.44
2022-11-16T19:37:55.456Z,98820.72
2022-11-16T19:40:02.724Z,98813.78
2022-11-16T19:42:15.189Z,98813.13
2022-11-16T19:44:22.158Z,98816.69
2022-11-16T19:46:29.496Z,98813.41
2022-11-16T19:48:33.713Z,98818.88
2022-11-16T19:50:38.446Z,98821.50
2022-11-16T19:52:41.480Z,98826.03
2022-11-16T19:54:50.664Z,98828.13
2022-11-16T19:56:55.175Z,98829.63
2022-11-16T19:59:06.384Z,98824.25
2022-11-16T20:01:11.935Z,98822.84
2022-11-16T20:03:15.076Z,98820.22
2022-11-16T20:05:18.263Z,98817.69
2022-11-16T20:07:30.079Z,98815.78
2022-11-16T20:09:33.686Z,98811.38
2022-11-16T20:11:48.229Z,98804.03
2022-11-16T20:13:53.170Z,98802.25
2022-11-16T20:16:11.087Z,98797.47
2022-11-16T20:18:14.185Z,98794.84
2022-11-16T20:20:17.523Z,98789.13
2022-11-16T20:22:20.450Z,98790.13
2022-11-16T20:24:24.839Z,98785.06
2022-11-16T20:26:42.701Z,98780.66
2022-11-16T20:33:22.973Z,98771.34
2022-11-16T20:35:33.478Z,98767.22
2022-11-16T20:37:46.698Z,98767.13
2022-11-16T20:40:02.100Z,98767.94
2022-11-16T20:42:05.395Z,98769.47
2022-11-16T20:44:58.290Z,98763.97
2022-11-16T20:47:01.812Z,98766.41
2022-11-16T20:49:07.853Z,98762.09
2022-11-16T20:51:13.627Z,98747.97
2022-11-16T20:53:23.793Z,98742.69
2022-11-16T20:55:32.235Z,98731.44
2022-11-16T20:57:35.250Z,98725.84
2022-11-16T20:59:38.420Z,98730.38
2022-11-16T21:05:21.582Z,98729.16
2022-11-16T21:07:28.004Z,98735.06
2022-11-16T21:09:51.056Z,98723.47
2022-11-16T21:12:12.915Z,98730.22
2022-11-16T21:14:48.456Z,98723.06
2022-11-16T21:19:18.277Z,98725.50
2022-11-16T21:21:21.113Z,98726.38
2022-11-16T21:23:28.507Z,98714.75
2022-11-16T21:25:31.398Z,98712.88
2022-11-16T21:27:42.601Z,98712.88
2022-11-16T21:29:53.106Z,98707.69
2022-11-16T21:31:59.811Z,98713.50
2022-11-16T21:34:10.643Z,98702.97
2022-11-16T21:36:15.270Z,98702.75
2022-11-16T21:38:18.152Z,98695.69
2022-11-16T21:40:21.183Z,98682.53
2022-11-16T21:42:24.088Z,98690.00
2022-11-16T21:44:41.765Z,98681.16
2022-11-16T21:47:00.675Z,98676.09
2022-11-16T21:49:03.805Z,98676.94
2022-11-16T21:51:09.170Z,98668.19
2022-11-16T21:53:12.252Z,98659.31
2022-11-16T21:55:15.681Z,98655.72
2022-11-16T21:57:22.956Z,98649.00
2022-11-16T21:59:43.800Z,98650.66
2022-11-16T22:02:02.167Z,98642.00
2022-11-16T22:04:22.637Z,98638.84
2022-11-16T22:06:43.478Z,98638.44
2022-11-16T22:08:47.188Z,98632.09
2022-11-16T22:10:51.715Z,98626.72
2022-11-16T22:12:54.896Z,98627.25
2022-11-16T22:15:04.043Z,98630.44
2022-11-16T22:17:08.650Z,98623.59
2022-11-16T22:19:19.752Z,98628.97
2022-11-16T22:21:22.968Z,98627.47
2022-11-16T22:23:25.849Z,98607.53
2022-11-16T22:25:28.890Z,98602.78
2022-11-16T22:27:31.957Z,98600.75
2022-11-16T22:29:48.562Z,98587.47
2022-11-16T22:31:55.571Z,98587.34
2022-11-16T22:33:58.413Z,98589.88
2022-11-16T22:36:09.596Z,98596.84
2022-11-16T22:38:12.774Z,98589.88
2022-11-16T22:40:25.559Z,98577.41
2022-11-16T22:42:28.662Z,98573.84
2022-11-16T22:44:31.725Z,98563.91
2022-11-16T22:46:34.602Z,98558.72
2022-11-16T22:48:41.624Z,98550.78
2022-11-16T22:50:44.615Z,98546.25
2022-11-16T22:52:47.580Z,98546.13
2022-11-16T22:54:53.840Z,98539.81
2022-11-16T22:57:04.122Z,98537.91
2022-11-16T22:59:10.922Z,98533.44
2022-11-16T23:01:13.848Z,98532.41
2022-11-16T23:03:19.899Z,98523.31
2022-11-16T23:05:30.034Z,98523.13
2022-11-16T23:07:33.161Z,98526.50
2022-11-16T23:09:36.056Z,98516.56
2022-11-16T23:11:56.329Z,98505.13
2022-11-16T23:14:16.805Z,98510.31
2022-11-16T23:16:27.398Z,98497.50
2022-11-16T23:19:03.769Z,98494.00
2022-11-16T23:21:27.884Z,98486.94
2022-11-16T23:23:48.293Z,98487.53
2022-11-16T23:26:08.659Z,98465.38
2022-11-16T23:28:14.294Z,98467.03
2022-11-16T23:30:17.338Z,98472.09
2022-11-16T23:32:23.696Z,98465.75
2022-11-16T23:34:26.685Z,98450.94
2022-11-16T23:36:33.208Z,98445.66
2022-11-16T23:38:49.422Z,98450.00
2022-11-16T23:40:55.398Z,98444.94
2022-11-16T23:43:16.179Z,98447.50
2022-11-16T23:45:20.490Z,98444.00
2022-11-16T23:47:24.226Z,98443.16
2022-11-16T23:49:27.332Z,98432.47
2022-11-16T23:51:34.393Z,98428.28
2022-11-16T23:53:37.578Z,98422.88
2022-11-16T23:55:41.313Z,98423.09
2022-11-16T23:57:44.223Z,98410.59
2022-11-16T23:59:47.106Z,98413.34
